San Francisco International Airport
KSFO : now visible

Airfield :











YOU CAN JOIN US ON...

 
LOGIN :

Register | Disclaimer

   EN    FR    IT 

 









Legend :    VFR   Marginal VFR   IFR   Intensive IFR   Very Intensive IFR
Visi :
Ceiling :
>= 8 km
>= 3000ft
5 to 8 km
1000 to 3000 ft
1500m to 5 km
500 to 1000 ft
800 to 1500m
200 to 500 ft
< 800m
< 200 ft
Symbols :   Thunderstorms  Fog  Heavy snow  Heavy precipitations  Wind > 20 kt






- Airport Elevation : 13 ft
- IATA code : SFO


KSFO - San Francisco International

CURRENT METAR :
  • 301856Z 26016G21KT 10SM FEW006 BKN014 16/09 A3007 RMK AO2 SLP183 T01560094

EXPIRED METARs :
  • 301756Z 24014KT 10SM FEW006 BKN012 14/09 A3007 RMK AO2 SLP183 T01440094 10150 20128 51005
  • 301738Z 26014KT 10SM FEW006 BKN014 BKN019 14/10 A3007 RMK AO2 T01440100
  • 301719Z 27012G20KT 10SM FEW005 BKN015 14/09 A3007 RMK AO2 T01440094
  • 301656Z 27014KT 10SM FEW005 BKN012 15/10 A3007 RMK AO2 SLP182 T01500100

TAF KSFO
Valid from the 30 at 18:00 until the 02 at 00:00 UTC


301730Z 3018/0124 27010G16KT P6SM BKN012
FM302100 27014G24KT P6SM FEW010
FM010400 27010KT P6SM OVC008
FM011700 27013G18KT P6SM SCT008
KZOA FIR / North America



MET'MAP, your aeronautical weather chart ! - Copyright ORBIFLY December 2007 - Disclaimer

ORBIFLY MET'MAP TEAM :

Programming & Development : Alexandra Zaïnal
Original concept : Baudouin d'Aumeries
Technical & hardware support : Manuel Goepfert
Assistance : Marc-Olivier Méhu




SOURCES & CREDITS :

   NOAA       Earth
Advisory